sensor_id;sensor_type;location;lat;lon;timestamp;P1;durP1;ratioP1;P2;durP2;ratioP2
71637;SDS011;59485;43.542;-5.676;2023-07-02T00:01:46;9.60;;;2.08;;
71637;SDS011;59485;43.542;-5.676;2023-07-02T00:04:13;6.13;;;2.00;;
71637;SDS011;59485;43.542;-5.676;2023-07-02T00:06:42;6.80;;;2.10;;
71637;SDS011;59485;43.542;-5.676;2023-07-02T00:09:11;6.68;;;2.17;;
71637;SDS011;59485;43.542;-5.676;2023-07-02T00:11:38;5.75;;;2.05;;
71637;SDS011;59485;43.542;-5.676;2023-07-02T00:14:04;7.38;;;2.50;;
71637;SDS011;59485;43.542;-5.676;2023-07-02T00:16:31;6.40;;;2.55;;
71637;SDS011;59485;43.542;-5.676;2023-07-02T00:18:57;5.60;;;2.53;;
71637;SDS011;59485;43.542;-5.676;2023-07-02T00:21:22;8.67;;;2.60;;
71637;SDS011;59485;43.542;-5.676;2023-07-02T00:23:53;7.30;;;2.42;;
71637;SDS011;59485;43.542;-5.676;2023-07-02T00:26:25;8.68;;;2.67;;
71637;SDS011;59485;43.542;-5.676;2023-07-02T00:28:55;7.18;;;2.67;;
71637;SDS011;59485;43.542;-5.676;2023-07-02T00:31:21;8.23;;;2.90;;
71637;SDS011;59485;43.542;-5.676;2023-07-02T00:33:48;7.80;;;2.70;;
71637;SDS011;59485;43.542;-5.676;2023-07-02T00:36:14;8.80;;;2.42;;
71637;SDS011;59485;43.542;-5.676;2023-07-02T00:38:45;7.53;;;2.73;;
71637;SDS011;59485;43.542;-5.676;2023-07-02T00:41:14;7.75;;;3.15;;
71637;SDS011;59485;43.542;-5.676;2023-07-02T00:43:40;9.40;;;3.40;;
71637;SDS011;59485;43.542;-5.676;2023-07-02T00:46:09;7.63;;;3.17;;
71637;SDS011;59485;43.542;-5.676;2023-07-02T00:48:48;14.18;;;4.28;;
71637;SDS011;59485;43.542;-5.676;2023-07-02T00:51:15;9.47;;;4.03;;
71637;SDS011;59485;43.542;-5.676;2023-07-02T00:53:45;16.67;;;5.13;;
71637;SDS011;59485;43.542;-5.676;2023-07-02T00:56:12;14.18;;;5.05;;
71637;SDS011;59485;43.542;-5.676;2023-07-02T00:58:42;13.83;;;5.20;;
71637;SDS011;59485;43.542;-5.676;2023-07-02T01:01:19;15.38;;;5.20;;
71637;SDS011;59485;43.542;-5.676;2023-07-02T01:03:55;15.52;;;5.85;;
71637;SDS011;59485;43.542;-5.676;2023-07-02T01:06:29;14.40;;;5.25;;
71637;SDS011;59485;43.542;-5.676;2023-07-02T01:08:57;17.15;;;5.78;;
71637;SDS011;59485;43.542;-5.676;2023-07-02T01:11:46;18.97;;;6.27;;
71637;SDS011;59485;43.542;-5.676;2023-07-02T01:14:17;18.48;;;6.30;;
71637;SDS011;59485;43.542;-5.676;2023-07-02T01:16:46;17.02;;;6.88;;
71637;SDS011;59485;43.542;-5.676;2023-07-02T01:19:18;14.95;;;5.45;;
71637;SDS011;59485;43.542;-5.676;2023-07-02T01:21:47;18.50;;;6.28;;
71637;SDS011;59485;43.542;-5.676;2023-07-02T01:24:15;17.50;;;5.87;;
71637;SDS011;59485;43.542;-5.676;2023-07-02T01:26:41;18.55;;;6.35;;
71637;SDS011;59485;43.542;-5.676;2023-07-02T01:29:16;14.45;;;6.28;;
71637;SDS011;59485;43.542;-5.676;2023-07-02T01:31:43;14.63;;;5.63;;
71637;SDS011;59485;43.542;-5.676;2023-07-02T01:34:09;14.45;;;5.35;;
71637;SDS011;59485;43.542;-5.676;2023-07-02T01:36:36;15.40;;;5.65;;
71637;SDS011;59485;43.542;-5.676;2023-07-02T01:39:02;13.45;;;5.47;;
71637;SDS011;59485;43.542;-5.676;2023-07-02T01:41:36;16.88;;;6.10;;
71637;SDS011;59485;43.542;-5.676;2023-07-02T01:44:06;16.03;;;5.67;;
71637;SDS011;59485;43.542;-5.676;2023-07-02T01:46:32;13.70;;;5.30;;
71637;SDS011;59485;43.542;-5.676;2023-07-02T01:48:57;23.63;;;6.40;;
71637;SDS011;59485;43.542;-5.676;2023-07-02T01:51:23;19.43;;;5.67;;
71637;SDS011;59485;43.542;-5.676;2023-07-02T01:53:48;13.02;;;5.35;;
71637;SDS011;59485;43.542;-5.676;2023-07-02T01:56:14;14.23;;;5.53;;
71637;SDS011;59485;43.542;-5.676;2023-07-02T01:58:39;20.10;;;6.50;;
71637;SDS011;59485;43.542;-5.676;2023-07-02T02:01:05;13.30;;;5.45;;
71637;SDS011;59485;43.542;-5.676;2023-07-02T02:03:30;19.17;;;5.50;;
71637;SDS011;59485;43.542;-5.676;2023-07-02T02:05:56;16.37;;;5.00;;
71637;SDS011;59485;43.542;-5.676;2023-07-02T02:08:21;16.90;;;5.53;;
71637;SDS011;59485;43.542;-5.676;2023-07-02T02:10:47;13.70;;;5.23;;
71637;SDS011;59485;43.542;-5.676;2023-07-02T02:13:12;14.37;;;5.20;;
71637;SDS011;59485;43.542;-5.676;2023-07-02T02:15:38;15.05;;;5.50;;
71637;SDS011;59485;43.542;-5.676;2023-07-02T02:18:03;17.43;;;5.60;;
71637;SDS011;59485;43.542;-5.676;2023-07-02T02:20:29;15.00;;;6.20;;
71637;SDS011;59485;43.542;-5.676;2023-07-02T02:22:54;12.00;;;4.60;;
71637;SDS011;59485;43.542;-5.676;2023-07-02T02:25:20;9.57;;;3.93;;
71637;SDS011;59485;43.542;-5.676;2023-07-02T02:27:45;11.13;;;4.33;;
71637;SDS011;59485;43.542;-5.676;2023-07-02T02:30:11;12.18;;;3.78;;
71637;SDS011;59485;43.542;-5.676;2023-07-02T02:32:37;9.70;;;3.90;;
71637;SDS011;59485;43.542;-5.676;2023-07-02T02:35:02;11.00;;;4.23;;
71637;SDS011;59485;43.542;-5.676;2023-07-02T02:37:28;10.40;;;3.47;;
71637;SDS011;59485;43.542;-5.676;2023-07-02T02:39:55;11.60;;;4.00;;
71637;SDS011;59485;43.542;-5.676;2023-07-02T02:42:22;12.63;;;4.47;;
71637;SDS011;59485;43.542;-5.676;2023-07-02T02:44:47;14.27;;;4.10;;
71637;SDS011;59485;43.542;-5.676;2023-07-02T02:47:13;9.73;;;3.00;;
71637;SDS011;59485;43.542;-5.676;2023-07-02T02:49:38;9.83;;;3.90;;
71637;SDS011;59485;43.542;-5.676;2023-07-02T02:52:05;13.63;;;4.50;;
71637;SDS011;59485;43.542;-5.676;2023-07-02T02:54:30;14.10;;;3.70;;
71637;SDS011;59485;43.542;-5.676;2023-07-02T02:56:56;10.20;;;3.83;;
71637;SDS011;59485;43.542;-5.676;2023-07-02T02:59:22;10.23;;;4.57;;
71637;SDS011;59485;43.542;-5.676;2023-07-02T03:01:47;12.73;;;4.45;;
71637;SDS011;59485;43.542;-5.676;2023-07-02T03:04:15;17.60;;;5.78;;
71637;SDS011;59485;43.542;-5.676;2023-07-02T03:06:41;11.67;;;4.57;;
71637;SDS011;59485;43.542;-5.676;2023-07-02T03:09:06;12.33;;;5.50;;
71637;SDS011;59485;43.542;-5.676;2023-07-02T03:11:32;10.23;;;4.20;;
71637;SDS011;59485;43.542;-5.676;2023-07-02T03:17:02;13.80;;;4.82;;
71637;SDS011;59485;43.542;-5.676;2023-07-02T03:22:00;9.93;;;4.18;;
71637;SDS011;59485;43.542;-5.676;2023-07-02T03:30:05;14.93;;;5.30;;
71637;SDS011;59485;43.542;-5.676;2023-07-02T03:34:58;8.38;;;3.90;;
71637;SDS011;59485;43.542;-5.676;2023-07-02T03:37:24;10.03;;;4.63;;
71637;SDS011;59485;43.542;-5.676;2023-07-02T03:39:50;11.87;;;4.10;;
71637;SDS011;59485;43.542;-5.676;2023-07-02T03:42:15;13.32;;;4.50;;
71637;SDS011;59485;43.542;-5.676;2023-07-02T03:44:41;13.40;;;4.47;;
71637;SDS011;59485;43.542;-5.676;2023-07-02T03:47:07;10.33;;;4.40;;
71637;SDS011;59485;43.542;-5.676;2023-07-02T03:49:33;10.00;;;4.10;;
71637;SDS011;59485;43.542;-5.676;2023-07-02T03:51:59;12.98;;;4.63;;
71637;SDS011;59485;43.542;-5.676;2023-07-02T03:54:25;7.30;;;3.53;;
71637;SDS011;59485;43.542;-5.676;2023-07-02T03:56:50;11.97;;;3.97;;
71637;SDS011;59485;43.542;-5.676;2023-07-02T03:59:16;11.97;;;3.93;;
71637;SDS011;59485;43.542;-5.676;2023-07-02T04:01:41;11.02;;;3.45;;
71637;SDS011;59485;43.542;-5.676;2023-07-02T04:04:07;10.43;;;3.72;;
71637;SDS011;59485;43.542;-5.676;2023-07-02T04:06:33;9.33;;;3.63;;
71637;SDS011;59485;43.542;-5.676;2023-07-02T04:08:59;10.88;;;3.97;;
71637;SDS011;59485;43.542;-5.676;2023-07-02T04:11:25;10.13;;;3.93;;
71637;SDS011;59485;43.542;-5.676;2023-07-02T04:13:50;13.32;;;4.30;;
71637;SDS011;59485;43.542;-5.676;2023-07-02T04:16:16;10.73;;;3.77;;
71637;SDS011;59485;43.542;-5.676;2023-07-02T04:18:41;7.93;;;2.93;;
71637;SDS011;59485;43.542;-5.676;2023-07-02T04:21:07;14.00;;;3.92;;
71637;SDS011;59485;43.542;-5.676;2023-07-02T04:23:32;8.57;;;2.90;;
71637;SDS011;59485;43.542;-5.676;2023-07-02T04:25:58;9.23;;;2.90;;
71637;SDS011;59485;43.542;-5.676;2023-07-02T04:28:23;7.93;;;3.33;;
71637;SDS011;59485;43.542;-5.676;2023-07-02T04:30:49;9.07;;;3.07;;
71637;SDS011;59485;43.542;-5.676;2023-07-02T04:33:16;8.02;;;2.95;;
71637;SDS011;59485;43.542;-5.676;2023-07-02T04:35:42;9.23;;;3.10;;
71637;SDS011;59485;43.542;-5.676;2023-07-02T04:38:08;6.87;;;2.73;;
71637;SDS011;59485;43.542;-5.676;2023-07-02T04:40:33;8.97;;;3.47;;
71637;SDS011;59485;43.542;-5.676;2023-07-02T04:42:59;7.75;;;3.33;;
71637;SDS011;59485;43.542;-5.676;2023-07-02T04:45:25;9.67;;;3.60;;
71637;SDS011;59485;43.542;-5.676;2023-07-02T04:47:51;6.45;;;3.10;;
71637;SDS011;59485;43.542;-5.676;2023-07-02T04:50:18;7.47;;;3.13;;
71637;SDS011;59485;43.542;-5.676;2023-07-02T04:52:44;9.45;;;3.63;;
71637;SDS011;59485;43.542;-5.676;2023-07-02T04:55:09;9.23;;;3.17;;
71637;SDS011;59485;43.542;-5.676;2023-07-02T04:57:35;8.32;;;2.63;;
71637;SDS011;59485;43.542;-5.676;2023-07-02T05:00:01;7.60;;;2.33;;
71637;SDS011;59485;43.542;-5.676;2023-07-02T05:02:29;6.57;;;2.30;;
71637;SDS011;59485;43.542;-5.676;2023-07-02T05:04:54;9.02;;;2.83;;
71637;SDS011;59485;43.542;-5.676;2023-07-02T05:07:20;9.40;;;2.90;;
71637;SDS011;59485;43.542;-5.676;2023-07-02T05:09:46;8.50;;;2.47;;
71637;SDS011;59485;43.542;-5.676;2023-07-02T05:12:13;8.20;;;2.80;;
71637;SDS011;59485;43.542;-5.676;2023-07-02T05:14:39;10.37;;;3.27;;
71637;SDS011;59485;43.542;-5.676;2023-07-02T05:17:04;10.63;;;4.00;;
71637;SDS011;59485;43.542;-5.676;2023-07-02T05:19:30;13.05;;;3.45;;
71637;SDS011;59485;43.542;-5.676;2023-07-02T05:21:55;8.50;;;3.40;;
71637;SDS011;59485;43.542;-5.676;2023-07-02T05:24:21;11.17;;;3.40;;
71637;SDS011;59485;43.542;-5.676;2023-07-02T05:26:46;9.20;;;3.03;;
71637;SDS011;59485;43.542;-5.676;2023-07-02T05:29:12;9.50;;;2.53;;
71637;SDS011;59485;43.542;-5.676;2023-07-02T05:31:39;9.32;;;3.53;;
71637;SDS011;59485;43.542;-5.676;2023-07-02T05:34:04;8.97;;;2.47;;
71637;SDS011;59485;43.542;-5.676;2023-07-02T05:36:30;7.85;;;2.20;;
71637;SDS011;59485;43.542;-5.676;2023-07-02T05:38:56;6.13;;;2.03;;
71637;SDS011;59485;43.542;-5.676;2023-07-02T05:41:21;6.68;;;2.33;;
71637;SDS011;59485;43.542;-5.676;2023-07-02T05:43:47;10.13;;;2.17;;
71637;SDS011;59485;43.542;-5.676;2023-07-02T05:46:13;8.10;;;2.43;;
71637;SDS011;59485;43.542;-5.676;2023-07-02T05:48:40;9.53;;;3.03;;
71637;SDS011;59485;43.542;-5.676;2023-07-02T05:51:06;9.55;;;2.55;;
71637;SDS011;59485;43.542;-5.676;2023-07-02T05:53:33;8.02;;;3.03;;
71637;SDS011;59485;43.542;-5.676;2023-07-02T05:55:59;7.38;;;2.72;;
71637;SDS011;59485;43.542;-5.676;2023-07-02T05:58:24;8.00;;;2.67;;
71637;SDS011;59485;43.542;-5.676;2023-07-02T06:00:50;9.00;;;2.70;;
71637;SDS011;59485;43.542;-5.676;2023-07-02T06:03:16;8.20;;;3.03;;
71637;SDS011;59485;43.542;-5.676;2023-07-02T06:05:47;8.50;;;2.57;;
71637;SDS011;59485;43.542;-5.676;2023-07-02T06:08:16;9.35;;;2.78;;
71637;SDS011;59485;43.542;-5.676;2023-07-02T06:10:43;9.20;;;2.65;;
71637;SDS011;59485;43.542;-5.676;2023-07-02T06:13:11;9.68;;;3.15;;
71637;SDS011;59485;43.542;-5.676;2023-07-02T06:15:37;11.17;;;2.77;;
71637;SDS011;59485;43.542;-5.676;2023-07-02T06:18:02;9.25;;;3.00;;
71637;SDS011;59485;43.542;-5.676;2023-07-02T06:20:28;10.77;;;2.90;;
71637;SDS011;59485;43.542;-5.676;2023-07-02T06:22:53;7.37;;;3.03;;
71637;SDS011;59485;43.542;-5.676;2023-07-02T06:25:19;8.20;;;2.95;;
71637;SDS011;59485;43.542;-5.676;2023-07-02T06:27:45;11.07;;;3.00;;
71637;SDS011;59485;43.542;-5.676;2023-07-02T06:30:10;10.57;;;3.23;;
71637;SDS011;59485;43.542;-5.676;2023-07-02T06:32:36;7.65;;;2.55;;
71637;SDS011;59485;43.542;-5.676;2023-07-02T06:35:02;9.57;;;2.88;;
71637;SDS011;59485;43.542;-5.676;2023-07-02T06:37:34;9.23;;;2.78;;
71637;SDS011;59485;43.542;-5.676;2023-07-02T06:39:59;8.27;;;2.70;;
71637;SDS011;59485;43.542;-5.676;2023-07-02T06:42:25;8.15;;;2.67;;
71637;SDS011;59485;43.542;-5.676;2023-07-02T06:44:51;7.30;;;3.10;;
71637;SDS011;59485;43.542;-5.676;2023-07-02T06:47:16;6.68;;;2.80;;
71637;SDS011;59485;43.542;-5.676;2023-07-02T06:49:42;13.90;;;3.43;;
71637;SDS011;59485;43.542;-5.676;2023-07-02T06:52:08;10.65;;;3.08;;
71637;SDS011;59485;43.542;-5.676;2023-07-02T06:54:34;7.27;;;2.83;;
71637;SDS011;59485;43.542;-5.676;2023-07-02T06:56:59;8.25;;;2.95;;
71637;SDS011;59485;43.542;-5.676;2023-07-02T06:59:25;10.30;;;3.07;;
71637;SDS011;59485;43.542;-5.676;2023-07-02T07:01:58;9.32;;;4.00;;
71637;SDS011;59485;43.542;-5.676;2023-07-02T07:04:23;9.80;;;3.30;;
71637;SDS011;59485;43.542;-5.676;2023-07-02T07:06:49;9.77;;;3.30;;
71637;SDS011;59485;43.542;-5.676;2023-07-02T07:09:22;7.90;;;3.67;;
71637;SDS011;59485;43.542;-5.676;2023-07-02T07:11:47;9.10;;;2.80;;
71637;SDS011;59485;43.542;-5.676;2023-07-02T07:14:13;9.20;;;2.73;;
71637;SDS011;59485;43.542;-5.676;2023-07-02T07:16:38;8.03;;;3.03;;
71637;SDS011;59485;43.542;-5.676;2023-07-02T07:19:04;10.63;;;3.57;;
71637;SDS011;59485;43.542;-5.676;2023-07-02T07:21:30;8.18;;;3.60;;
71637;SDS011;59485;43.542;-5.676;2023-07-02T07:23:56;7.43;;;4.00;;
71637;SDS011;59485;43.542;-5.676;2023-07-02T07:26:22;12.20;;;4.78;;
71637;SDS011;59485;43.542;-5.676;2023-07-02T07:28:47;10.60;;;5.50;;
71637;SDS011;59485;43.542;-5.676;2023-07-02T07:31:13;10.35;;;3.72;;
71637;SDS011;59485;43.542;-5.676;2023-07-02T07:33:38;9.13;;;4.03;;
71637;SDS011;59485;43.542;-5.676;2023-07-02T07:36:04;8.13;;;3.93;;
71637;SDS011;59485;43.542;-5.676;2023-07-02T07:38:29;8.63;;;4.13;;
71637;SDS011;59485;43.542;-5.676;2023-07-02T07:40:55;8.03;;;3.33;;
71637;SDS011;59485;43.542;-5.676;2023-07-02T07:43:20;8.77;;;4.00;;
71637;SDS011;59485;43.542;-5.676;2023-07-02T07:45:46;10.33;;;3.90;;
71637;SDS011;59485;43.542;-5.676;2023-07-02T07:48:12;10.37;;;3.53;;
71637;SDS011;59485;43.542;-5.676;2023-07-02T07:50:37;8.55;;;3.50;;
71637;SDS011;59485;43.542;-5.676;2023-07-02T07:53:03;9.23;;;3.70;;
71637;SDS011;59485;43.542;-5.676;2023-07-02T07:55:28;10.93;;;5.23;;
71637;SDS011;59485;43.542;-5.676;2023-07-02T07:57:54;8.77;;;3.90;;
71637;SDS011;59485;43.542;-5.676;2023-07-02T08:00:19;10.43;;;4.80;;
71637;SDS011;59485;43.542;-5.676;2023-07-02T08:02:45;7.57;;;4.03;;
71637;SDS011;59485;43.542;-5.676;2023-07-02T08:05:14;9.10;;;4.35;;
71637;SDS011;59485;43.542;-5.676;2023-07-02T08:07:40;9.50;;;3.72;;
71637;SDS011;59485;43.542;-5.676;2023-07-02T08:10:06;14.67;;;4.80;;
71637;SDS011;59485;43.542;-5.676;2023-07-02T08:12:33;13.43;;;3.67;;
71637;SDS011;59485;43.542;-5.676;2023-07-02T08:14:59;14.18;;;3.22;;
71637;SDS011;59485;43.542;-5.676;2023-07-02T08:17:25;15.03;;;3.53;;
71637;SDS011;59485;43.542;-5.676;2023-07-02T08:19:50;9.82;;;2.70;;
71637;SDS011;59485;43.542;-5.676;2023-07-02T08:22:16;14.63;;;2.97;;
71637;SDS011;59485;43.542;-5.676;2023-07-02T08:24:42;12.75;;;4.00;;
71637;SDS011;59485;43.542;-5.676;2023-07-02T08:27:08;7.57;;;2.20;;
71637;SDS011;59485;43.542;-5.676;2023-07-02T08:29:35;11.00;;;2.80;;
71637;SDS011;59485;43.542;-5.676;2023-07-02T08:32:00;9.33;;;2.37;;
71637;SDS011;59485;43.542;-5.676;2023-07-02T08:34:26;10.87;;;2.10;;
71637;SDS011;59485;43.542;-5.676;2023-07-02T08:36:51;10.20;;;1.80;;
71637;SDS011;59485;43.542;-5.676;2023-07-02T08:39:17;7.57;;;2.30;;
71637;SDS011;59485;43.542;-5.676;2023-07-02T08:41:43;8.07;;;2.37;;
71637;SDS011;59485;43.542;-5.676;2023-07-02T08:44:12;7.18;;;1.98;;
71637;SDS011;59485;43.542;-5.676;2023-07-02T08:46:39;7.82;;;1.88;;
71637;SDS011;59485;43.542;-5.676;2023-07-02T08:49:06;7.75;;;1.60;;
71637;SDS011;59485;43.542;-5.676;2023-07-02T08:51:32;9.77;;;3.67;;
71637;SDS011;59485;43.542;-5.676;2023-07-02T08:53:58;14.63;;;3.87;;
71637;SDS011;59485;43.542;-5.676;2023-07-02T08:56:23;14.57;;;5.20;;
71637;SDS011;59485;43.542;-5.676;2023-07-02T08:58:49;16.05;;;4.78;;
71637;SDS011;59485;43.542;-5.676;2023-07-02T09:01:15;12.10;;;3.30;;
71637;SDS011;59485;43.542;-5.676;2023-07-02T09:03:40;13.50;;;3.40;;
71637;SDS011;59485;43.542;-5.676;2023-07-02T09:06:07;15.07;;;3.63;;
71637;SDS011;59485;43.542;-5.676;2023-07-02T09:08:34;11.97;;;3.47;;
71637;SDS011;59485;43.542;-5.676;2023-07-02T09:11:09;9.23;;;2.53;;
71637;SDS011;59485;43.542;-5.676;2023-07-02T09:18:55;9.52;;;2.35;;
71637;SDS011;59485;43.542;-5.676;2023-07-02T09:26:42;10.32;;;2.47;;
71637;SDS011;59485;43.542;-5.676;2023-07-02T09:29:12;7.15;;;1.70;;
71637;SDS011;59485;43.542;-5.676;2023-07-02T09:31:47;8.88;;;1.50;;
71637;SDS011;59485;43.542;-5.676;2023-07-02T09:34:13;9.57;;;2.57;;
71637;SDS011;59485;43.542;-5.676;2023-07-02T09:36:40;7.20;;;2.03;;
71637;SDS011;59485;43.542;-5.676;2023-07-02T09:39:10;7.05;;;1.95;;
71637;SDS011;59485;43.542;-5.676;2023-07-02T09:41:39;12.20;;;2.50;;
71637;SDS011;59485;43.542;-5.676;2023-07-02T09:44:07;9.80;;;2.38;;
71637;SDS011;59485;43.542;-5.676;2023-07-02T09:46:33;8.23;;;1.80;;
71637;SDS011;59485;43.542;-5.676;2023-07-02T09:49:01;12.32;;;1.95;;
71637;SDS011;59485;43.542;-5.676;2023-07-02T09:51:27;7.40;;;1.40;;
71637;SDS011;59485;43.542;-5.676;2023-07-02T09:53:53;8.90;;;1.30;;
71637;SDS011;59485;43.542;-5.676;2023-07-02T09:56:19;6.43;;;1.40;;
71637;SDS011;59485;43.542;-5.676;2023-07-02T09:58:46;5.90;;;1.30;;
71637;SDS011;59485;43.542;-5.676;2023-07-02T10:01:12;8.52;;;1.48;;
71637;SDS011;59485;43.542;-5.676;2023-07-02T10:03:37;3.90;;;0.70;;
71637;SDS011;59485;43.542;-5.676;2023-07-02T10:06:07;3.80;;;0.63;;
71637;SDS011;59485;43.542;-5.676;2023-07-02T10:08:33;3.40;;;0.77;;
71637;SDS011;59485;43.542;-5.676;2023-07-02T10:11:09;3.30;;;0.60;;
71637;SDS011;59485;43.542;-5.676;2023-07-02T10:13:40;4.53;;;0.52;;
71637;SDS011;59485;43.542;-5.676;2023-07-02T10:16:06;5.45;;;0.88;;
71637;SDS011;59485;43.542;-5.676;2023-07-02T10:18:32;2.43;;;0.60;;
71637;SDS011;59485;43.542;-5.676;2023-07-02T10:20:59;4.23;;;0.60;;
71637;SDS011;59485;43.542;-5.676;2023-07-02T10:23:34;3.75;;;0.57;;
71637;SDS011;59485;43.542;-5.676;2023-07-02T10:26:16;3.08;;;0.43;;
71637;SDS011;59485;43.542;-5.676;2023-07-02T10:28:55;5.90;;;0.73;;
71637;SDS011;59485;43.542;-5.676;2023-07-02T10:31:22;3.60;;;0.95;;
71637;SDS011;59485;43.542;-5.676;2023-07-02T10:33:47;3.92;;;1.05;;
71637;SDS011;59485;43.542;-5.676;2023-07-02T10:36:23;5.13;;;1.27;;
71637;SDS011;59485;43.542;-5.676;2023-07-02T10:38:50;5.53;;;0.80;;
71637;SDS011;59485;43.542;-5.676;2023-07-02T10:41:25;3.67;;;0.70;;
71637;SDS011;59485;43.542;-5.676;2023-07-02T10:43:52;9.77;;;0.80;;
71637;SDS011;59485;43.542;-5.676;2023-07-02T10:46:18;5.20;;;0.75;;
71637;SDS011;59485;43.542;-5.676;2023-07-02T10:48:51;3.50;;;0.75;;
71637;SDS011;59485;43.542;-5.676;2023-07-02T10:51:17;3.10;;;0.50;;
71637;SDS011;59485;43.542;-5.676;2023-07-02T10:53:43;3.47;;;0.65;;
71637;SDS011;59485;43.542;-5.676;2023-07-02T10:56:08;6.90;;;0.90;;
71637;SDS011;59485;43.542;-5.676;2023-07-02T10:58:43;5.35;;;0.80;;
71637;SDS011;59485;43.542;-5.676;2023-07-02T11:01:09;2.80;;;0.73;;
71637;SDS011;59485;43.542;-5.676;2023-07-02T11:03:35;10.90;;;1.43;;
71637;SDS011;59485;43.542;-5.676;2023-07-02T11:06:00;4.63;;;0.77;;
71637;SDS011;59485;43.542;-5.676;2023-07-02T11:08:35;4.03;;;0.80;;
71637;SDS011;59485;43.542;-5.676;2023-07-02T11:11:05;3.83;;;0.73;;
71637;SDS011;59485;43.542;-5.676;2023-07-02T11:13:31;4.50;;;1.00;;
71637;SDS011;59485;43.542;-5.676;2023-07-02T11:15:57;5.37;;;0.73;;
71637;SDS011;59485;43.542;-5.676;2023-07-02T11:18:22;4.20;;;0.40;;
71637;SDS011;59485;43.542;-5.676;2023-07-02T11:20:48;5.93;;;0.50;;
71637;SDS011;59485;43.542;-5.676;2023-07-02T11:23:17;4.17;;;0.87;;
71637;SDS011;59485;43.542;-5.676;2023-07-02T11:28:22;5.70;;;0.50;;
71637;SDS011;59485;43.542;-5.676;2023-07-02T11:30:51;3.97;;;0.73;;
71637;SDS011;59485;43.542;-5.676;2023-07-02T11:33:17;4.75;;;1.05;;
71637;SDS011;59485;43.542;-5.676;2023-07-02T11:35:52;6.50;;;0.52;;
71637;SDS011;59485;43.542;-5.676;2023-07-02T11:38:39;5.68;;;0.80;;
71637;SDS011;59485;43.542;-5.676;2023-07-02T11:41:03;6.32;;;1.05;;
71637;SDS011;59485;43.542;-5.676;2023-07-02T11:46:01;6.63;;;1.05;;
71637;SDS011;59485;43.542;-5.676;2023-07-02T11:48:26;7.00;;;1.10;;
71637;SDS011;59485;43.542;-5.676;2023-07-02T11:50:52;6.93;;;0.80;;
71637;SDS011;59485;43.542;-5.676;2023-07-02T11:53:17;4.07;;;0.60;;
71637;SDS011;59485;43.542;-5.676;2023-07-02T11:55:45;6.90;;;1.55;;
71637;SDS011;59485;43.542;-5.676;2023-07-02T11:58:11;7.00;;;1.17;;
71637;SDS011;59485;43.542;-5.676;2023-07-02T12:00:37;7.53;;;0.97;;
71637;SDS011;59485;43.542;-5.676;2023-07-02T12:03:08;8.40;;;0.83;;
71637;SDS011;59485;43.542;-5.676;2023-07-02T12:05:35;7.63;;;1.33;;
71637;SDS011;59485;43.542;-5.676;2023-07-02T12:08:01;6.20;;;1.23;;
71637;SDS011;59485;43.542;-5.676;2023-07-02T12:10:27;4.97;;;0.85;;
71637;SDS011;59485;43.542;-5.676;2023-07-02T12:12:53;6.43;;;1.00;;
71637;SDS011;59485;43.542;-5.676;2023-07-02T12:15:18;7.25;;;1.40;;
71637;SDS011;59485;43.542;-5.676;2023-07-02T12:17:44;7.57;;;1.40;;
71637;SDS011;59485;43.542;-5.676;2023-07-02T12:20:19;9.67;;;1.27;;
71637;SDS011;59485;43.542;-5.676;2023-07-02T12:22:44;3.50;;;0.73;;
71637;SDS011;59485;43.542;-5.676;2023-07-02T12:25:10;4.00;;;0.52;;
71637;SDS011;59485;43.542;-5.676;2023-07-02T12:27:36;8.57;;;1.70;;
71637;SDS011;59485;43.542;-5.676;2023-07-02T12:30:02;4.80;;;0.80;;
71637;SDS011;59485;43.542;-5.676;2023-07-02T12:32:27;5.67;;;1.00;;
71637;SDS011;59485;43.542;-5.676;2023-07-02T12:34:54;5.17;;;1.40;;
71637;SDS011;59485;43.542;-5.676;2023-07-02T12:37:19;7.88;;;0.70;;
71637;SDS011;59485;43.542;-5.676;2023-07-02T12:39:48;5.10;;;1.50;;
71637;SDS011;59485;43.542;-5.676;2023-07-02T12:42:13;3.03;;;0.52;;
71637;SDS011;59485;43.542;-5.676;2023-07-02T12:44:39;6.47;;;1.10;;
71637;SDS011;59485;43.542;-5.676;2023-07-02T12:47:04;3.67;;;0.40;;
71637;SDS011;59485;43.542;-5.676;2023-07-02T12:49:33;3.83;;;0.52;;
71637;SDS011;59485;43.542;-5.676;2023-07-02T12:51:59;5.43;;;0.57;;
71637;SDS011;59485;43.542;-5.676;2023-07-02T12:54:24;3.40;;;0.43;;
71637;SDS011;59485;43.542;-5.676;2023-07-02T12:56:50;3.63;;;0.85;;
71637;SDS011;59485;43.542;-5.676;2023-07-02T12:59:16;4.80;;;1.23;;
71637;SDS011;59485;43.542;-5.676;2023-07-02T13:01:41;4.13;;;0.57;;
71637;SDS011;59485;43.542;-5.676;2023-07-02T13:04:14;3.17;;;0.50;;
71637;SDS011;59485;43.542;-5.676;2023-07-02T13:06:40;2.73;;;0.60;;
71637;SDS011;59485;43.542;-5.676;2023-07-02T13:09:06;4.35;;;0.93;;
71637;SDS011;59485;43.542;-5.676;2023-07-02T13:11:32;4.75;;;0.35;;
71637;SDS011;59485;43.542;-5.676;2023-07-02T13:13:58;3.37;;;0.70;;
71637;SDS011;59485;43.542;-5.676;2023-07-02T13:16:24;4.90;;;0.77;;
71637;SDS011;59485;43.542;-5.676;2023-07-02T13:18:49;5.20;;;0.70;;
71637;SDS011;59485;43.542;-5.676;2023-07-02T13:21:15;5.33;;;0.97;;
71637;SDS011;59485;43.542;-5.676;2023-07-02T13:23:40;3.90;;;0.93;;
71637;SDS011;59485;43.542;-5.676;2023-07-02T13:26:06;6.13;;;1.27;;
71637;SDS011;59485;43.542;-5.676;2023-07-02T13:28:34;7.15;;;1.30;;
71637;SDS011;59485;43.542;-5.676;2023-07-02T13:31:00;6.10;;;0.80;;
71637;SDS011;59485;43.542;-5.676;2023-07-02T13:33:28;5.38;;;0.80;;
71637;SDS011;59485;43.542;-5.676;2023-07-02T13:35:56;5.53;;;1.17;;
71637;SDS011;59485;43.542;-5.676;2023-07-02T13:38:24;8.10;;;2.57;;
71637;SDS011;59485;43.542;-5.676;2023-07-02T13:40:49;14.80;;;8.40;;
71637;SDS011;59485;43.542;-5.676;2023-07-02T13:43:15;9.33;;;4.17;;
71637;SDS011;59485;43.542;-5.676;2023-07-02T13:45:41;11.15;;;4.97;;
71637;SDS011;59485;43.542;-5.676;2023-07-02T13:48:06;14.17;;;7.77;;
71637;SDS011;59485;43.542;-5.676;2023-07-02T13:50:32;19.03;;;9.23;;
71637;SDS011;59485;43.542;-5.676;2023-07-02T13:52:58;25.17;;;11.93;;
71637;SDS011;59485;43.542;-5.676;2023-07-02T13:55:26;19.53;;;12.03;;
71637;SDS011;59485;43.542;-5.676;2023-07-02T13:57:56;12.52;;;4.82;;
71637;SDS011;59485;43.542;-5.676;2023-07-02T14:00:25;8.48;;;2.22;;
71637;SDS011;59485;43.542;-5.676;2023-07-02T14:02:52;10.20;;;4.60;;
71637;SDS011;59485;43.542;-5.676;2023-07-02T14:05:18;17.23;;;9.30;;
71637;SDS011;59485;43.542;-5.676;2023-07-02T14:07:44;11.15;;;4.70;;
71637;SDS011;59485;43.542;-5.676;2023-07-02T14:10:10;12.88;;;5.57;;
71637;SDS011;59485;43.542;-5.676;2023-07-02T14:12:46;9.20;;;4.23;;
71637;SDS011;59485;43.542;-5.676;2023-07-02T14:15:12;7.05;;;2.05;;
71637;SDS011;59485;43.542;-5.676;2023-07-02T14:17:38;11.43;;;3.75;;
71637;SDS011;59485;43.542;-5.676;2023-07-02T14:20:04;8.67;;;2.57;;
71637;SDS011;59485;43.542;-5.676;2023-07-02T14:22:32;8.10;;;1.33;;
71637;SDS011;59485;43.542;-5.676;2023-07-02T14:24:57;18.50;;;10.57;;
71637;SDS011;59485;43.542;-5.676;2023-07-02T14:27:23;21.23;;;10.95;;
71637;SDS011;59485;43.542;-5.676;2023-07-02T14:29:49;30.37;;;18.20;;
71637;SDS011;59485;43.542;-5.676;2023-07-02T14:32:15;11.68;;;3.42;;
71637;SDS011;59485;43.542;-5.676;2023-07-02T14:34:40;7.73;;;2.50;;
71637;SDS011;59485;43.542;-5.676;2023-07-02T14:37:06;6.88;;;1.27;;
71637;SDS011;59485;43.542;-5.676;2023-07-02T14:39:32;20.47;;;11.73;;
71637;SDS011;59485;43.542;-5.676;2023-07-02T14:41:58;21.60;;;10.73;;
71637;SDS011;59485;43.542;-5.676;2023-07-02T14:44:24;10.32;;;4.68;;
71637;SDS011;59485;43.542;-5.676;2023-07-02T14:46:58;6.68;;;1.35;;
71637;SDS011;59485;43.542;-5.676;2023-07-02T14:49:24;3.83;;;0.80;;
71637;SDS011;59485;43.542;-5.676;2023-07-02T14:51:50;11.13;;;4.00;;
71637;SDS011;59485;43.542;-5.676;2023-07-02T14:54:16;12.00;;;3.07;;
71637;SDS011;59485;43.542;-5.676;2023-07-02T14:56:42;8.35;;;2.30;;